createdAt,value
2019-05-29T00:00:12.925Z,0.42
2019-05-29T00:02:41.890Z,0.57
2019-05-29T00:05:10.507Z,0.53
2019-05-29T00:07:38.863Z,0.40
2019-05-29T00:10:08.770Z,0.50
2019-05-29T00:12:37.232Z,0.50
2019-05-29T00:15:06.238Z,0.65
2019-05-29T00:17:34.880Z,0.50
2019-05-29T00:20:03.513Z,0.50
2019-05-29T00:22:31.861Z,0.45
2019-05-29T00:25:00.238Z,0.40
2019-05-29T00:27:28.589Z,0.50
2019-05-29T00:29:56.986Z,0.50
2019-05-29T00:32:25.446Z,0.42
2019-05-29T00:34:53.865Z,0.50
2019-05-29T00:37:22.241Z,0.50
2019-05-29T00:39:50.592Z,0.50
2019-05-29T00:42:18.963Z,0.40
2019-05-29T00:44:47.313Z,0.42
2019-05-29T00:47:15.759Z,0.50
2019-05-29T00:49:44.054Z,0.40
2019-05-29T00:52:12.405Z,0.42
2019-05-29T00:54:40.772Z,0.57
2019-05-29T00:57:09.129Z,0.40
2019-05-29T00:59:37.478Z,0.60
2019-05-29T01:02:05.848Z,0.40
2019-05-29T01:04:34.228Z,0.50
2019-05-29T01:07:02.649Z,0.60
2019-05-29T01:09:30.974Z,0.40
2019-05-29T01:11:59.323Z,0.50
2019-05-29T01:14:27.707Z,0.30
2019-05-29T01:16:56.051Z,0.40
2019-05-29T01:19:27.150Z,0.50
2019-05-29T01:21:56.152Z,0.40
2019-05-29T01:24:25.437Z,0.40
2019-05-29T01:26:53.793Z,0.40
2019-05-29T01:29:23.288Z,0.40
2019-05-29T01:31:51.918Z,0.50
2019-05-29T01:34:20.394Z,0.40
2019-05-29T01:36:48.753Z,0.50
2019-05-29T01:39:17.292Z,0.40
2019-05-29T01:41:45.869Z,0.40
2019-05-29T01:44:15.256Z,0.33
2019-05-29T01:46:43.799Z,0.40
2019-05-29T01:49:12.149Z,0.30
2019-05-29T01:51:40.522Z,0.40
2019-05-29T01:54:08.873Z,0.35
2019-05-29T01:56:37.237Z,0.37
2019-05-29T01:59:05.658Z,0.35
2019-05-29T02:01:34.071Z,0.40
2019-05-29T02:04:02.448Z,0.42
2019-05-29T02:06:30.804Z,0.40
2019-05-29T02:08:59.178Z,0.40
2019-05-29T02:11:27.590Z,0.40
2019-05-29T02:13:55.928Z,0.40
2019-05-29T02:16:24.911Z,0.40
2019-05-29T02:18:53.448Z,0.30
2019-05-29T02:21:22.285Z,0.50
2019-05-29T02:23:50.795Z,0.30
2019-05-29T02:26:20.297Z,0.40
2019-05-29T02:28:48.832Z,0.37
2019-05-29T02:31:17.671Z,0.40
2019-05-29T02:33:47.193Z,0.40
2019-05-29T02:36:15.561Z,0.40
2019-05-29T02:38:43.916Z,0.37
2019-05-29T02:41:12.281Z,0.30
2019-05-29T02:43:40.641Z,0.40
2019-05-29T02:46:09.003Z,0.40
2019-05-29T02:48:37.360Z,0.40
2019-05-29T02:51:05.716Z,0.37
2019-05-29T02:53:34.091Z,0.40
2019-05-29T02:56:02.444Z,0.30
2019-05-29T02:58:31.775Z,0.40
2019-05-29T03:01:00.463Z,0.30
2019-05-29T03:03:31.177Z,0.37
2019-05-29T03:05:58.848Z,0.40
2019-05-29T03:08:29.554Z,0.40
2019-05-29T03:10:57.212Z,0.40
2019-05-29T03:13:27.384Z,0.30
2019-05-29T03:16:09.540Z,0.40
2019-05-29T03:18:25.878Z,0.30
2019-05-29T03:20:54.476Z,0.40
2019-05-29T03:23:24.082Z,0.40
2019-05-29T03:25:52.601Z,0.33
2019-05-29T03:28:20.952Z,0.40
2019-05-29T03:30:49.335Z,0.42
2019-05-29T03:33:17.688Z,0.40
2019-05-29T03:35:47.985Z,0.30
2019-05-29T03:38:16.443Z,0.30
2019-05-29T03:40:44.791Z,0.40
2019-05-29T03:43:13.165Z,0.40
2019-05-29T03:45:41.520Z,0.40
2019-05-29T03:48:09.888Z,0.50
2019-05-29T03:50:38.586Z,0.40
2019-05-29T03:53:07.113Z,0.40
2019-05-29T03:55:36.027Z,0.40
2019-05-29T03:58:05.486Z,0.40
2019-05-29T04:00:41.756Z,0.40
2019-05-29T04:03:03.855Z,0.37
2019-05-29T04:05:33.415Z,0.40
2019-05-29T04:08:02.282Z,0.40
2019-05-29T04:10:32.987Z,0.40
2019-05-29T04:13:01.539Z,0.40
2019-05-29T04:15:33.549Z,0.40
2019-05-29T04:18:04.505Z,0.40
2019-05-29T04:20:38.803Z,0.50
2019-05-29T04:23:07.959Z,0.30
2019-05-29T04:25:40.575Z,0.50
2019-05-29T04:28:08.293Z,0.47
2019-05-29T04:30:38.642Z,0.40
2019-05-29T04:33:07.029Z,0.50
2019-05-29T04:35:36.892Z,0.50
2019-05-29T04:38:05.559Z,0.60
2019-05-29T04:40:35.004Z,0.53
2019-05-29T04:43:03.927Z,0.57
2019-05-29T04:45:33.235Z,0.70
2019-05-29T04:48:02.396Z,0.40
2019-05-29T04:50:31.381Z,0.50
2019-05-29T04:53:00.713Z,0.50
2019-05-29T04:55:29.085Z,0.60
2019-05-29T04:57:57.435Z,0.50
2019-05-29T05:00:25.804Z,0.85
2019-05-29T05:02:54.157Z,0.80
2019-05-29T05:05:22.508Z,0.70
2019-05-29T05:07:50.896Z,0.60
2019-05-29T05:10:34.085Z,0.60
2019-05-29T05:13:02.451Z,0.60
2019-05-29T05:15:31.593Z,0.55
2019-05-29T05:18:00.095Z,0.47
2019-05-29T05:20:29.863Z,0.40
2019-05-29T05:22:58.390Z,0.70
2019-05-29T05:25:26.756Z,0.50
2019-05-29T05:27:55.111Z,0.70
2019-05-29T05:30:23.484Z,0.65
2019-05-29T05:32:51.833Z,0.60
2019-05-29T05:35:20.211Z,0.50
2019-05-29T05:37:48.560Z,0.50
2019-05-29T05:40:16.928Z,0.50
2019-05-29T05:42:45.284Z,0.42
2019-05-29T05:45:13.636Z,0.50
2019-05-29T05:47:54.648Z,0.70
2019-05-29T05:50:12.017Z,0.60
2019-05-29T05:52:41.538Z,0.50
2019-05-29T05:55:10.137Z,0.55
2019-05-29T05:57:39.528Z,0.40
2019-05-29T06:00:09.799Z,0.50
2019-05-29T06:02:38.203Z,0.47
2019-05-29T06:05:06.986Z,0.50
2019-05-29T06:07:36.110Z,0.47
2019-05-29T06:10:07.219Z,0.47
2019-05-29T06:12:36.532Z,0.50
2019-05-29T06:15:07.672Z,0.50
2019-05-29T06:17:36.561Z,0.40
2019-05-29T06:20:08.144Z,0.40
2019-05-29T06:22:36.896Z,0.40
2019-05-29T06:25:06.789Z,0.50
2019-05-29T06:27:35.251Z,0.42
2019-05-29T06:30:07.296Z,0.50
2019-05-29T06:32:35.654Z,0.60
2019-05-29T06:35:05.568Z,0.50
2019-05-29T06:37:33.927Z,0.60
2019-05-29T06:40:02.347Z,0.50
2019-05-29T06:42:30.720Z,0.40
2019-05-29T06:44:59.093Z,0.40
2019-05-29T06:47:27.452Z,0.80
2019-05-29T06:49:55.811Z,0.40
2019-05-29T06:52:24.160Z,0.40
2019-05-29T06:54:52.533Z,0.50
2019-05-29T06:57:24.997Z,0.50
2019-05-29T06:59:50.896Z,0.53
2019-05-29T07:02:19.259Z,0.50
2019-05-29T07:04:47.611Z,0.57
2019-05-29T07:07:15.972Z,0.55
2019-05-29T07:09:45.137Z,0.80
2019-05-29T07:12:13.501Z,0.70
2019-05-29T07:14:42.492Z,2.75
2019-05-29T07:17:11.098Z,2.42
2019-05-29T07:19:54.313Z,1.65
2019-05-29T07:22:09.476Z,1.60
2019-05-29T07:24:38.758Z,1.00
2019-05-29T07:27:07.417Z,0.90
2019-05-29T07:29:37.335Z,0.95
2019-05-29T07:32:05.676Z,0.70
2019-05-29T07:34:49.942Z,0.50
2019-05-29T07:37:04.076Z,0.50
2019-05-29T07:39:32.417Z,0.53
2019-05-29T07:42:00.808Z,0.50
2019-05-29T07:44:29.168Z,0.40
2019-05-29T07:46:57.525Z,0.40
2019-05-29T07:49:38.565Z,0.40
2019-05-29T07:51:55.917Z,0.50
2019-05-29T07:54:24.299Z,0.40
2019-05-29T07:56:52.653Z,0.40
2019-05-29T07:59:20.997Z,0.40
2019-05-29T08:01:49.383Z,0.40
2019-05-29T08:04:17.734Z,0.50
2019-05-29T08:06:51.094Z,0.47
2019-05-29T08:09:16.096Z,0.47
2019-05-29T08:11:45.570Z,0.40
2019-05-29T08:14:14.139Z,0.50
2019-05-29T08:16:43.926Z,0.40
2019-05-29T08:19:12.567Z,0.42
2019-05-29T08:21:41.398Z,0.40
2019-05-29T08:24:13.836Z,0.40
2019-05-29T08:26:42.936Z,0.50
2019-05-29T08:29:11.357Z,0.50
2019-05-29T08:31:40.647Z,0.50
2019-05-29T08:34:09.181Z,0.50
2019-05-29T08:36:37.548Z,0.40
2019-05-29T08:39:07.099Z,0.50
2019-05-29T08:41:35.445Z,0.50
2019-05-29T08:44:03.865Z,0.65
2019-05-29T08:46:33.456Z,0.40
2019-05-29T08:49:02.652Z,0.50
2019-05-29T08:51:31.347Z,0.40
2019-05-29T08:53:59.727Z,0.50
2019-05-29T08:56:28.080Z,0.50
2019-05-29T08:58:56.443Z,0.60
2019-05-29T09:01:24.804Z,0.47
2019-05-29T09:03:53.416Z,0.40
2019-05-29T09:06:22.029Z,0.40
2019-05-29T09:08:52.050Z,0.47
2019-05-29T09:11:20.424Z,0.40
2019-05-29T09:13:48.776Z,0.40
2019-05-29T09:16:17.147Z,0.40
2019-05-29T09:18:45.514Z,0.40
2019-05-29T09:21:14.558Z,0.40
2019-05-29T09:23:44.046Z,0.40
2019-05-29T09:26:19.042Z,0.40
2019-05-29T09:28:42.409Z,0.45
2019-05-29T09:31:10.757Z,0.40
2019-05-29T09:33:39.125Z,0.40
2019-05-29T09:36:07.545Z,0.40
2019-05-29T09:38:35.926Z,0.40
2019-05-29T09:41:04.288Z,0.50
2019-05-29T09:43:32.665Z,0.45
2019-05-29T09:46:02.300Z,0.40
2019-05-29T09:48:30.918Z,0.30
2019-05-29T09:50:59.260Z,0.45
2019-05-29T09:53:27.621Z,0.40
2019-05-29T09:55:57.350Z,0.50
2019-05-29T09:58:26.051Z,0.40
2019-05-29T10:01:15.460Z,0.40
2019-05-29T10:03:24.418Z,0.50
2019-05-29T10:05:54.080Z,0.40
2019-05-29T10:08:22.844Z,0.42
2019-05-29T10:10:51.200Z,0.40
2019-05-29T10:13:19.516Z,0.53
2019-05-29T10:15:47.882Z,0.55
2019-05-29T10:18:31.309Z,0.40
2019-05-29T10:20:46.283Z,0.30
2019-05-29T10:23:14.637Z,0.60
2019-05-29T10:25:42.981Z,0.62
2019-05-29T10:28:11.926Z,0.60
2019-05-29T10:30:42.053Z,0.70
2019-05-29T10:33:10.276Z,0.70
2019-05-29T10:35:38.644Z,0.42
2019-05-29T10:38:06.994Z,0.50
2019-05-29T10:40:35.350Z,0.50
2019-05-29T10:43:03.733Z,0.50
2019-05-29T10:45:32.096Z,0.40
2019-05-29T10:48:00.447Z,0.50
2019-05-29T10:50:28.816Z,0.40
2019-05-29T10:52:57.172Z,0.50
2019-05-29T10:55:25.546Z,0.50
2019-05-29T10:57:55.208Z,0.40
2019-05-29T11:00:24.437Z,0.50
2019-05-29T11:02:55.173Z,0.45
2019-05-29T11:05:22.825Z,0.42
2019-05-29T11:07:51.931Z,0.40
2019-05-29T11:10:20.436Z,0.50
2019-05-29T11:12:48.808Z,0.50
2019-05-29T11:15:21.538Z,0.50
2019-05-29T11:17:48.898Z,0.40
2019-05-29T11:20:17.411Z,0.40
2019-05-29T11:22:45.709Z,0.40
2019-05-29T11:25:22.638Z,0.35
2019-05-29T11:27:44.056Z,0.40
2019-05-29T11:30:12.497Z,0.50
2019-05-29T11:32:41.216Z,0.40
2019-05-29T11:35:09.588Z,0.40
2019-05-29T11:37:37.940Z,0.50
2019-05-29T11:40:07.044Z,0.40
2019-05-29T11:42:35.416Z,0.40
2019-05-29T11:45:06.744Z,0.40
2019-05-29T11:47:35.069Z,0.50
2019-05-29T11:50:19.239Z,0.53
2019-05-29T11:52:43.292Z,0.60
2019-05-29T11:55:12.051Z,0.50
2019-05-29T11:57:40.394Z,0.53
2019-05-29T12:00:19.857Z,0.57
2019-05-29T12:02:41.717Z,0.82
2019-05-29T12:05:11.744Z,1.20
2019-05-29T12:07:40.098Z,0.72
2019-05-29T12:10:08.630Z,0.70
2019-05-29T12:12:37.217Z,0.70
2019-05-29T12:15:13.100Z,0.60
2019-05-29T12:17:37.043Z,0.70
2019-05-29T12:20:26.573Z,0.50
2019-05-29T12:22:36.716Z,0.50
2019-05-29T12:25:07.795Z,0.50
2019-05-29T12:27:36.173Z,0.40
2019-05-29T12:30:07.181Z,0.50
2019-05-29T12:32:35.552Z,0.50
2019-05-29T12:35:06.345Z,0.40
2019-05-29T12:37:34.725Z,0.40
2019-05-29T12:40:06.858Z,0.57
2019-05-29T12:42:35.280Z,0.40
2019-05-29T12:45:04.378Z,0.40
2019-05-29T12:47:32.885Z,0.40
2019-05-29T12:50:02.690Z,0.45
2019-05-29T12:52:31.268Z,0.40
2019-05-29T12:55:00.050Z,0.40
2019-05-29T12:57:28.477Z,0.40
2019-05-29T12:59:57.907Z,0.40
2019-05-29T13:02:26.424Z,0.40
2019-05-29T13:05:18.344Z,0.40
2019-05-29T13:07:24.844Z,0.33
2019-05-29T13:09:54.298Z,0.40
2019-05-29T13:12:22.863Z,0.40
2019-05-29T13:14:51.232Z,0.40
2019-05-29T13:17:19.585Z,0.40
2019-05-29T13:19:47.952Z,0.50
2019-05-29T13:22:16.333Z,0.60
2019-05-29T13:24:44.690Z,0.50
2019-05-29T13:27:13.056Z,0.50
2019-05-29T13:29:41.428Z,0.57
2019-05-29T13:32:09.788Z,0.45
2019-05-29T13:34:38.172Z,0.40
2019-05-29T13:37:08.009Z,0.50
2019-05-29T13:39:36.588Z,0.40
2019-05-29T13:42:10.759Z,0.50
2019-05-29T13:44:34.991Z,0.50
2019-05-29T13:47:04.102Z,0.40
2019-05-29T13:49:32.660Z,0.62
2019-05-29T13:52:02.309Z,0.40
2019-05-29T13:54:31.004Z,0.60
2019-05-29T13:57:00.776Z,0.40
2019-05-29T13:59:29.395Z,0.60
2019-05-29T14:01:58.391Z,0.80
2019-05-29T14:04:27.045Z,0.60
2019-05-29T14:06:55.420Z,0.70
2019-05-29T14:09:23.778Z,0.68
2019-05-29T14:11:52.142Z,0.62
2019-05-29T14:14:20.491Z,0.70
2019-05-29T14:16:48.784Z,0.55
2019-05-29T14:19:17.242Z,0.90
2019-05-29T14:21:45.599Z,0.62
2019-05-29T14:24:28.316Z,0.50
2019-05-29T14:26:43.960Z,0.70
2019-05-29T14:29:12.335Z,0.60
2019-05-29T14:31:40.760Z,0.70
2019-05-29T14:34:09.442Z,0.50
2019-05-29T14:36:38.080Z,0.50
2019-05-29T14:39:07.730Z,0.60
2019-05-29T14:41:36.285Z,0.60
2019-05-29T14:44:05.696Z,0.50
2019-05-29T14:46:34.323Z,0.50
2019-05-29T14:49:02.717Z,0.50
2019-05-29T14:51:32.212Z,0.50
2019-05-29T14:54:00.588Z,0.37
2019-05-29T14:56:29.159Z,0.40
2019-05-29T14:58:57.750Z,0.40
2019-05-29T15:01:26.138Z,0.40
2019-05-29T15:03:54.483Z,0.60
2019-05-29T15:06:22.912Z,0.50
2019-05-29T15:08:51.292Z,0.50
2019-05-29T15:11:19.626Z,0.50
2019-05-29T15:13:47.992Z,0.57
2019-05-29T15:16:16.364Z,0.50
2019-05-29T15:18:44.744Z,0.60
2019-05-29T15:21:13.197Z,0.60
2019-05-29T15:23:41.581Z,0.60
2019-05-29T15:26:09.920Z,0.70
2019-05-29T15:28:38.298Z,0.60
2019-05-29T15:31:06.664Z,0.50
2019-05-29T15:33:35.016Z,0.50
2019-05-29T15:36:03.386Z,0.50
2019-05-29T15:38:31.744Z,0.50
2019-05-29T15:41:00.098Z,0.68
2019-05-29T15:43:28.490Z,0.70
2019-05-29T15:45:56.831Z,0.60
2019-05-29T15:48:25.180Z,0.60
2019-05-29T15:50:53.556Z,0.60
2019-05-29T15:53:21.925Z,0.60
2019-05-29T15:55:50.273Z,0.70
2019-05-29T15:58:18.628Z,0.60
2019-05-29T16:00:47.549Z,0.80
2019-05-29T16:03:15.897Z,0.75
2019-05-29T16:05:44.271Z,0.90
2019-05-29T16:08:12.624Z,0.90
2019-05-29T16:10:40.987Z,0.90
2019-05-29T16:13:10.843Z,0.90
2019-05-29T16:15:39.508Z,0.90
2019-05-29T16:18:21.746Z,0.60
2019-05-29T16:20:37.919Z,0.88
2019-05-29T16:23:06.289Z,1.15
2019-05-29T16:25:40.202Z,0.98
2019-05-29T16:28:04.665Z,0.80
2019-05-29T16:30:33.022Z,1.60
2019-05-29T16:33:01.380Z,1.10
2019-05-29T16:35:29.758Z,1.00
2019-05-29T16:37:58.152Z,0.70
2019-05-29T16:40:26.499Z,0.90
2019-05-29T16:42:54.852Z,0.70
2019-05-29T16:45:23.229Z,0.70
2019-05-29T16:47:51.611Z,0.57
2019-05-29T16:50:21.287Z,0.50
2019-05-29T16:52:49.796Z,0.60
2019-05-29T16:55:19.339Z,0.50
2019-05-29T16:57:47.737Z,0.70
2019-05-29T17:00:17.457Z,0.60
2019-05-29T17:02:45.986Z,0.60
2019-05-29T17:05:15.660Z,0.70
2019-05-29T17:07:44.203Z,0.62
2019-05-29T17:10:14.366Z,0.50
2019-05-29T17:12:42.805Z,0.50
2019-05-29T17:15:12.121Z,0.50
2019-05-29T17:17:40.470Z,0.50
2019-05-29T17:20:08.984Z,0.65
2019-05-29T17:22:37.352Z,0.50
2019-05-29T17:25:06.069Z,0.60
2019-05-29T17:27:34.493Z,0.50
2019-05-29T17:30:02.844Z,0.70
2019-05-29T17:32:31.218Z,0.78
2019-05-29T17:34:59.595Z,0.85
2019-05-29T17:37:27.959Z,1.02
2019-05-29T17:39:56.347Z,1.00
2019-05-29T17:42:24.717Z,0.93
2019-05-29T17:44:53.072Z,0.70
2019-05-29T17:47:21.550Z,0.90
2019-05-29T17:49:49.903Z,0.80
2019-05-29T17:52:18.256Z,0.88
2019-05-29T17:54:46.632Z,0.80
2019-05-29T17:57:16.558Z,0.75
2019-05-29T17:59:45.092Z,0.80
2019-05-29T18:02:13.475Z,0.80
2019-05-29T18:04:41.819Z,0.95
2019-05-29T18:07:10.184Z,0.75
2019-05-29T18:09:38.536Z,0.62
2019-05-29T18:12:06.914Z,0.80
2019-05-29T18:14:35.280Z,0.80
2019-05-29T18:17:03.654Z,0.78
2019-05-29T18:19:32.002Z,0.70
2019-05-29T18:22:00.379Z,0.70
2019-05-29T18:24:28.732Z,0.70
2019-05-29T18:26:59.227Z,0.70
2019-05-29T18:29:29.401Z,0.78
2019-05-29T18:31:57.114Z,0.80
2019-05-29T18:34:25.493Z,0.70
2019-05-29T18:36:53.848Z,0.60
2019-05-29T18:39:22.238Z,0.60
2019-05-29T18:41:50.569Z,0.70
2019-05-29T18:44:18.930Z,0.70
2019-05-29T18:46:47.300Z,0.60
2019-05-29T18:49:15.660Z,0.80
2019-05-29T18:51:44.012Z,0.60
2019-05-29T18:54:12.400Z,0.70
2019-05-29T18:56:40.844Z,0.70
2019-05-29T18:59:09.140Z,0.80
2019-05-29T19:01:37.492Z,0.75
2019-05-29T19:04:05.867Z,0.60
2019-05-29T19:06:34.241Z,0.88
2019-05-29T19:09:02.682Z,0.75
2019-05-29T19:11:32.004Z,0.65
2019-05-29T19:14:01.407Z,0.80
2019-05-29T19:16:30.042Z,0.70
2019-05-29T19:18:58.532Z,0.70
2019-05-29T19:21:26.908Z,0.62
2019-05-29T19:23:55.264Z,0.78
2019-05-29T19:26:24.756Z,0.80
2019-05-29T19:28:53.284Z,0.70
2019-05-29T19:31:22.891Z,0.80
2019-05-29T19:33:51.516Z,0.80
2019-05-29T19:36:19.865Z,0.80
2019-05-29T19:38:48.232Z,0.80
2019-05-29T19:41:16.584Z,0.90
2019-05-29T19:43:44.952Z,0.80
2019-05-29T19:46:13.305Z,0.60
2019-05-29T19:48:41.667Z,1.00
2019-05-29T19:51:10.048Z,0.80
2019-05-29T19:53:38.394Z,0.82
2019-05-29T19:56:06.790Z,0.50
2019-05-29T19:58:36.156Z,0.80
2019-05-29T20:01:05.003Z,0.55
2019-05-29T20:03:34.543Z,0.60
2019-05-29T20:06:03.193Z,0.62
2019-05-29T20:08:34.368Z,0.60
2019-05-29T20:11:01.548Z,0.60
2019-05-29T20:13:30.119Z,0.50
2019-05-29T20:15:58.487Z,0.75
2019-05-29T20:18:27.953Z,0.60
2019-05-29T20:20:56.516Z,0.50
2019-05-29T20:23:24.894Z,0.70
2019-05-29T20:25:53.244Z,0.50
2019-05-29T20:28:21.612Z,0.60
2019-05-29T20:30:50.041Z,0.45
2019-05-29T20:33:18.396Z,0.57
2019-05-29T20:35:46.788Z,0.60
2019-05-29T20:38:15.139Z,0.50
2019-05-29T20:40:43.496Z,0.42
2019-05-29T20:43:11.869Z,0.40
2019-05-29T20:45:40.234Z,0.60
2019-05-29T20:48:08.616Z,0.50
2019-05-29T20:50:37.066Z,0.50
2019-05-29T20:53:05.442Z,0.68
2019-05-29T20:55:33.792Z,0.60
2019-05-29T20:58:02.175Z,0.60
2019-05-29T21:00:31.858Z,0.50
2019-05-29T21:03:00.484Z,0.50
2019-05-29T21:05:28.854Z,0.68
2019-05-29T21:07:57.228Z,0.57
2019-05-29T21:10:25.595Z,0.55
2019-05-29T21:12:53.956Z,0.55
2019-05-29T21:15:22.342Z,0.65
2019-05-29T21:17:50.685Z,0.50
2019-05-29T21:20:19.104Z,0.50
2019-05-29T21:22:47.476Z,0.60
2019-05-29T21:25:18.980Z,0.60
2019-05-29T21:27:49.215Z,0.60
2019-05-29T21:30:16.033Z,0.80
2019-05-29T21:32:46.021Z,1.00
2019-05-29T21:35:14.624Z,0.53
2019-05-29T21:37:44.313Z,0.60
2019-05-29T21:40:12.720Z,0.50
2019-05-29T21:42:41.071Z,0.60
2019-05-29T21:45:09.437Z,0.40
2019-05-29T21:47:39.003Z,0.47
2019-05-29T21:50:07.905Z,0.68
2019-05-29T21:52:37.471Z,0.57
2019-05-29T21:55:06.570Z,0.60
2019-05-29T21:57:34.920Z,0.70
2019-05-29T22:00:05.684Z,0.50
2019-05-29T22:02:34.033Z,0.50
2019-05-29T22:05:02.413Z,0.50
2019-05-29T22:07:30.779Z,0.60
2019-05-29T22:09:59.132Z,0.55
2019-05-29T22:12:27.501Z,0.60
2019-05-29T22:14:56.844Z,0.60
2019-05-29T22:17:25.517Z,0.50
2019-05-29T22:19:54.924Z,0.50
2019-05-29T22:22:23.429Z,0.50
2019-05-29T22:24:53.049Z,0.55
2019-05-29T22:27:21.445Z,0.50
2019-05-29T22:29:51.830Z,0.50
2019-05-29T22:32:19.804Z,0.68
2019-05-29T22:34:48.147Z,0.50
2019-05-29T22:37:16.515Z,0.50
2019-05-29T22:39:44.886Z,0.50
2019-05-29T22:42:13.262Z,0.60
2019-05-29T22:44:41.612Z,0.60
2019-05-29T22:47:10.044Z,0.40
2019-05-29T22:49:38.383Z,0.47
2019-05-29T22:52:06.771Z,0.40
2019-05-29T22:54:35.116Z,0.40
2019-05-29T22:57:03.549Z,0.57
2019-05-29T22:59:32.517Z,0.40
2019-05-29T23:02:02.460Z,0.60
2019-05-29T23:04:31.160Z,0.60
2019-05-29T23:07:00.414Z,0.60
2019-05-29T23:09:28.856Z,0.50
2019-05-29T23:11:58.244Z,0.50
2019-05-29T23:14:26.679Z,0.50
2019-05-29T23:16:55.025Z,0.50
2019-05-29T23:19:23.405Z,0.60
2019-05-29T23:21:52.394Z,0.60
2019-05-29T23:24:20.807Z,0.50
2019-05-29T23:26:49.158Z,0.50
2019-05-29T23:29:17.524Z,0.80
2019-05-29T23:31:45.885Z,0.40
2019-05-29T23:34:14.263Z,0.50
2019-05-29T23:36:42.614Z,0.57
2019-05-29T23:39:10.972Z,0.50
2019-05-29T23:41:39.415Z,0.45
2019-05-29T23:44:08.355Z,0.50
2019-05-29T23:46:36.772Z,0.40
2019-05-29T23:49:05.132Z,0.50
2019-05-29T23:51:33.500Z,0.50
2019-05-29T23:54:01.916Z,0.40
2019-05-29T23:56:30.209Z,0.50
2019-05-29T23:58:58.561Z,0.50
